Time;durP1;ratioP1;P1;durP2;ratioP2;P2;SDS_P1;SDS_P2;PMS_P1;PMS_P2;Temp;Humidity;BMP_temperature;BMP_pressure;BME280_temperature;BME280_humidity;BME280_pressure;Samples;Min_cycle;Max_cycle;Signal;HPM_P1;HPM_P2
2022/11/04 00:01:03;;;;;;;27.17;14.20;;;;;;;13.45;59.92;99546.75;4398598;32;20093;-92
2022/11/04 00:03:29;;;;;;;30.05;13.62;;;;;;;13.45;59.92;99538.06;4424302;32;20218;-91
2022/11/04 00:05:54;;;;;;;33.90;15.30;;;;;;;13.58;59.93;99531.34;4398522;32;20140;-91
2022/11/04 00:08:22;;;;;;;34.47;14.68;;;;;;;13.55;59.92;99513.19;4423386;32;26695;-91
2022/11/04 00:13:32;;;;;;;30.08;14.85;;;;;;;13.33;59.91;99515.13;4415406;32;20124;-92
2022/11/04 00:18:44;;;;;;;35.83;15.55;;;;;;;13.28;59.91;99515.34;4416312;32;20107;-92
2022/11/04 00:29:22;;;;;;;31.17;15.13;;;;;;;13.14;59.90;99483.72;4415607;32;20126;-91
2022/11/04 00:34:31;;;;;;;29.00;13.43;;;;;;;13.25;59.90;99489.34;4426499;32;20258;-91
2022/11/04 00:36:58;;;;;;;31.17;14.50;;;;;;;13.28;59.91;99494.44;4398198;32;22565;-92
2022/11/04 00:39:23;;;;;;;31.42;14.80;;;;;;;13.25;59.91;99491.09;4398660;32;20085;-92
2022/11/04 00:41:49;;;;;;;36.20;14.27;;;;;;;13.27;59.92;99477.06;4398120;32;20139;-91
2022/11/04 00:44:14;;;;;;;35.80;14.95;;;;;;;13.36;59.91;99473.16;4414167;32;20144;-94
2022/11/04 00:46:40;;;;;;;32.20;14.07;;;;;;;13.38;59.91;99471.31;4413806;32;20901;-92
2022/11/04 00:49:05;;;;;;;30.85;14.05;;;;;;;13.39;59.92;99460.78;4413066;32;20193;-91
2022/11/04 00:51:30;;;;;;;28.48;13.30;;;;;;;13.27;59.91;99456.16;4400387;32;20133;-90
2022/11/04 00:53:57;;;;;;;30.50;13.40;;;;;;;13.28;59.91;99451.75;4400425;32;20197;-91
2022/11/04 00:56:22;;;;;;;29.40;14.30;;;;;;;13.27;59.91;99461.38;4425785;32;20449;-92
2022/11/04 00:58:49;;;;;;;36.33;14.57;;;;;;;13.30;59.91;99460.37;4413178;32;20137;-92
2022/11/04 01:01:17;;;;;;;29.00;13.65;;;;;;;13.13;59.91;99463.75;4400734;32;20110;-92
2022/11/04 01:03:50;;;;;;;28.55;14.18;;;;;;;13.21;59.90;99461.63;4401311;32;20128;-90
2022/11/04 01:06:16;;;;;;;39.92;14.90;;;;;;;13.28;59.91;99468.28;4413436;32;20149;-92
2022/11/04 01:08:41;;;;;;;26.90;13.32;;;;;;;13.35;59.91;99455.75;4407887;32;20663;-91
2022/11/04 01:11:15;;;;;;;34.03;14.68;;;;;;;13.23;59.91;99458.94;4437782;32;20437;-93
2022/11/04 01:13:41;;;;;;;31.50;13.48;;;;;;;13.19;59.91;99461.72;4420054;32;20113;-93
2022/11/04 01:16:08;;;;;;;32.90;14.87;;;;;;;13.34;59.92;99456.69;4427221;32;20085;-94
2022/11/04 01:18:33;;;;;;;32.42;14.80;;;;;;;13.22;59.90;99463.34;4441223;32;20081;-92
2022/11/04 01:21:00;;;;;;;32.08;14.73;;;;;;;13.31;59.91;99449.00;4421613;32;20107;-92
2022/11/04 01:23:25;;;;;;;35.13;15.07;;;;;;;13.23;59.90;99448.50;4424354;32;20714;-92
2022/11/04 01:25:51;;;;;;;34.25;14.38;;;;;;;13.26;59.90;99436.16;4418173;32;20436;-92
2022/11/04 01:28:16;;;;;;;34.60;15.32;;;;;;;13.38;59.91;99438.16;4415833;32;23030;-92
2022/11/04 01:30:42;;;;;;;30.90;13.68;;;;;;;13.27;59.92;99435.22;4427960;32;20100;-91
2022/11/04 01:33:07;;;;;;;33.88;14.87;;;;;;;13.25;59.91;99444.91;4415500;32;20411;-92
2022/11/04 01:35:32;;;;;;;26.67;13.40;;;;;;;13.48;59.91;99442.00;4422748;32;20136;-90
2022/11/04 01:37:58;;;;;;;29.52;14.30;;;;;;;13.28;59.91;99441.31;4426696;32;20096;-92
2022/11/04 01:40:23;;;;;;;29.23;14.55;;;;;;;13.33;59.91;99426.25;4406114;32;20144;-91
2022/11/04 01:42:49;;;;;;;30.60;13.45;;;;;;;13.30;59.91;99421.16;4427767;32;20113;-91
2022/11/04 01:45:15;;;;;;;35.92;14.07;;;;;;;13.25;59.90;99412.66;4440381;32;26979;-92
2022/11/04 01:47:51;;;;;;;36.33;14.65;;;;;;;13.42;59.92;99395.25;4415145;32;20103;-92
2022/11/04 01:50:19;;;;;;;30.80;14.70;;;;;;;13.26;59.91;99398.72;4437948;32;20109;-92
2022/11/04 01:52:51;;;;;;;31.60;13.30;;;;;;;13.45;59.92;99397.72;4408687;32;20163;-91
2022/11/04 01:55:23;;;;;;;35.13;14.15;;;;;;;13.33;59.91;99400.94;4440814;32;20089;-92
2022/11/04 01:57:49;;;;;;;33.38;13.88;;;;;;;13.31;59.91;99392.34;4414193;32;20150;-91
2022/11/04 02:00:14;;;;;;;32.38;13.88;;;;;;;13.39;59.91;99376.25;4411669;32;20109;-91
2022/11/04 02:02:50;;;;;;;26.48;13.20;;;;;;;13.47;59.92;99387.19;4426435;32;20109;-92
2022/11/04 02:05:16;;;;;;;32.47;13.82;;;;;;;13.29;59.91;99377.66;4427293;32;20089;-91
2022/11/04 02:07:41;;;;;;;35.60;15.57;;;;;;;13.44;59.91;99380.34;4422871;32;20122;-92
2022/11/04 02:10:07;;;;;;;33.60;14.68;;;;;;;13.59;59.93;99368.28;4440233;32;20101;-91
2022/11/04 02:12:51;;;;;;;30.48;14.80;;;;;;;13.47;59.91;99380.19;4425040;32;20097;-92
2022/11/04 02:15:19;;;;;;;33.05;14.00;;;;;;;13.50;59.92;99371.38;4429790;32;20115;-92
2022/11/04 02:18:00;;;;;;;33.83;15.38;;;;;;;13.60;59.92;99363.88;4412494;32;20520;-90
2022/11/04 02:20:31;;;;;;;30.52;14.25;;;;;;;13.57;59.92;99351.81;4406257;32;20101;-92
2022/11/04 02:23:31;;;;;;;32.95;14.90;;;;;;;13.56;59.92;99351.91;4440542;32;20170;-91
2022/11/04 02:26:08;;;;;;;34.03;14.38;;;;;;;13.54;59.92;99344.13;4416468;32;20520;-92
2022/11/04 02:28:49;;;;;;;34.95;14.25;;;;;;;13.60;59.93;99341.19;4438629;32;20430;-92
2022/11/04 02:31:24;;;;;;;32.42;14.52;;;;;;;13.73;59.93;99344.91;4440228;32;20497;-92
2022/11/04 02:33:56;;;;;;;33.15;14.60;;;;;;;13.72;59.93;99347.56;4440467;32;20096;-91
2022/11/04 02:36:23;;;;;;;35.97;14.75;;;;;;;13.67;59.93;99332.09;4412048;32;20431;-91
2022/11/04 02:39:06;;;;;;;34.55;15.05;;;;;;;13.56;59.92;99323.13;4438758;32;20737;-91
2022/11/04 02:41:48;;;;;;;29.95;13.90;;;;;;;13.55;59.92;99316.22;4440694;32;20135;-92
2022/11/04 02:44:26;;;;;;;40.45;14.95;;;;;;;13.58;59.93;99313.44;4415125;32;20174;-92
2022/11/04 02:47:12;;;;;;;36.10;15.38;;;;;;;13.45;59.92;99324.50;4435901;32;20085;-90
2022/11/04 02:49:41;;;;;;;39.33;15.75;;;;;;;13.42;59.92;99324.66;4440248;32;20089;-92
2022/11/04 02:52:08;;;;;;;40.70;16.75;;;;;;;13.40;59.92;99320.44;4415141;32;20162;-93
2022/11/04 02:54:37;;;;;;;40.70;15.20;;;;;;;13.43;59.92;99325.50;4412896;32;20482;-92
2022/11/04 02:57:03;;;;;;;41.33;17.37;;;;;;;13.57;59.92;99330.06;4408582;32;20088;-95
2022/11/04 02:59:34;;;;;;;38.15;15.60;;;;;;;13.62;59.92;99334.12;4415771;32;20096;-94
2022/11/04 03:02:00;;;;;;;37.88;15.48;;;;;;;13.38;59.91;99332.75;4415850;32;20101;-92
2022/11/04 03:04:28;;;;;;;37.60;15.50;;;;;;;13.50;59.92;99329.53;4428428;32;20147;-91
2022/11/04 03:06:53;;;;;;;35.20;16.20;;;;;;;13.33;59.91;99312.06;4412417;32;20426;-92
2022/11/04 03:09:19;;;;;;;40.83;15.90;;;;;;;13.31;59.91;99308.69;4419925;32;20116;-92
2022/11/04 03:11:45;;;;;;;36.20;15.80;;;;;;;13.44;59.92;99301.06;4427890;32;20125;-91
2022/11/04 03:14:19;;;;;;;34.13;15.57;;;;;;;13.30;59.91;99293.09;4427998;32;20109;-91
2022/11/04 03:16:49;;;;;;;43.10;16.95;;;;;;;13.35;59.91;99286.69;4412636;32;20085;-93
2022/11/04 03:19:19;;;;;;;34.42;14.75;;;;;;;13.25;59.90;99282.00;4407894;32;20084;-92
2022/11/04 03:21:58;;;;;;;46.00;17.83;;;;;;;13.21;59.90;99273.47;4418113;32;20113;-92
2022/11/04 03:24:23;;;;;;;38.65;17.85;;;;;;;13.10;59.89;99260.06;4421719;32;20185;-92
2022/11/04 03:26:58;;;;;;;36.55;16.33;;;;;;;13.26;59.90;99260.19;4427660;32;20130;-93
2022/11/04 03:29:35;;;;;;;43.65;17.37;;;;;;;13.25;59.90;99258.47;4416432;32;20103;-92
2022/11/04 03:32:15;;;;;;;34.13;15.40;;;;;;;13.29;59.91;99266.09;4412752;32;20109;-93
2022/11/04 03:34:48;;;;;;;47.33;17.23;;;;;;;13.16;59.90;99260.59;4422414;32;20168;-95
2022/11/04 03:37:14;;;;;;;38.58;16.87;;;;;;;13.20;59.91;99263.94;4427752;32;20089;-92
2022/11/04 03:39:41;;;;;;;38.92;16.85;;;;;;;13.11;59.89;99260.00;4414297;32;20101;-91
2022/11/04 03:42:18;;;;;;;37.72;14.68;;;;;;;13.05;59.90;99268.16;4426495;32;20493;-90
2022/11/04 03:44:54;;;;;;;36.80;15.98;;;;;;;12.96;59.89;99257.28;4437318;32;20105;-92
2022/11/04 03:47:21;;;;;;;37.40;15.05;;;;;;;13.08;59.90;99259.31;4425296;32;20096;-92
2022/11/04 03:49:47;;;;;;;33.72;15.27;;;;;;;13.08;59.90;99260.16;4411719;32;20093;-91
2022/11/04 03:52:13;;;;;;;33.78;14.70;;;;;;;13.11;59.90;99260.00;4411553;32;20170;-92
2022/11/04 03:54:38;;;;;;;37.22;16.05;;;;;;;13.23;59.90;99249.88;4426271;32;25666;-91
2022/11/04 03:57:20;;;;;;;40.50;15.57;;;;;;;13.13;59.91;99234.62;4426641;32;20148;-91
2022/11/04 04:00:12;;;;;;;37.28;16.40;;;;;;;13.04;59.89;99229.03;4412577;32;20137;-92
2022/11/04 04:03:04;;;;;;;44.83;17.70;;;;;;;13.09;59.90;99217.41;4424871;32;20105;-93
2022/11/04 04:05:32;;;;;;;50.17;16.52;;;;;;;13.04;59.90;99208.97;4424659;32;20094;-93
2022/11/04 04:08:22;;;;;;;40.95;17.08;;;;;;;12.95;59.89;99211.19;4439292;32;20080;-93
2022/11/04 04:10:51;;;;;;;43.63;16.10;;;;;;;13.00;59.89;99203.97;4448589;32;20742;-91
2022/11/04 04:13:30;;;;;;;44.95;17.65;;;;;;;12.89;59.89;99207.97;4419437;32;20098;-92
2022/11/04 04:16:02;;;;;;;36.05;15.38;;;;;;;13.03;59.89;99201.22;4439993;32;20101;-90
2022/11/04 04:18:35;;;;;;;38.00;16.02;;;;;;;13.01;59.89;99203.03;4414265;32;20150;-91
2022/11/04 04:21:01;;;;;;;44.85;18.85;;;;;;;13.03;59.89;99206.44;4426832;32;20373;-91
2022/11/04 04:28:56;;;;;;;45.72;18.60;;;;;;;12.95;59.89;99203.34;4417787;32;20694;-90
2022/11/04 04:34:06;;;;;;;44.83;19.17;;;;;;;13.09;59.89;99217.41;4418002;32;20120;-90
2022/11/04 04:36:32;;;;;;;48.08;18.85;;;;;;;13.01;59.89;99210.88;4423040;32;20429;-89
2022/11/04 04:47:18;;;;;;;47.65;19.17;;;;;;;13.04;59.90;99190.69;4429804;32;20178;-90
2022/11/04 04:50:02;;;;;;;47.62;20.10;;;;;;;12.96;59.88;99190.22;4425643;32;20097;-92
2022/11/04 04:52:30;;;;;;;46.92;19.70;;;;;;;13.00;59.89;99183.06;4426720;32;20116;-92
2022/11/04 04:54:55;;;;;;;49.45;20.65;;;;;;;13.01;59.89;99196.06;4416060;32;20453;-93
2022/11/04 04:57:21;;;;;;;49.45;20.23;;;;;;;13.03;59.89;99196.00;4438965;32;20159;-93
2022/11/04 04:59:46;;;;;;;44.53;19.65;;;;;;;12.96;59.88;99192.81;4415223;32;20347;-92
2022/11/04 05:02:12;;;;;;;49.33;21.12;;;;;;;12.96;59.88;99184.97;4427961;32;20121;-92
2022/11/04 05:04:37;;;;;;;49.00;19.95;;;;;;;12.93;59.89;99182.53;4428427;32;20142;-93
2022/11/04 05:07:02;;;;;;;48.55;21.08;;;;;;;12.95;59.89;99191.13;4427690;32;20183;-90
2022/11/04 05:09:28;;;;;;;53.10;22.40;;;;;;;13.05;59.90;99183.69;4435692;32;20121;-91
2022/11/04 05:11:53;;;;;;;50.90;22.17;;;;;;;12.96;59.89;99186.75;4422192;32;20211;-92
2022/11/04 05:14:19;;;;;;;50.30;20.80;;;;;;;12.91;59.89;99184.38;4419395;32;20143;-91
2022/11/04 05:16:44;;;;;;;51.08;21.62;;;;;;;12.93;59.89;99179.91;4410079;32;20170;-92
2022/11/04 05:19:09;;;;;;;52.25;20.98;;;;;;;12.87;59.88;99188.06;4418017;32;20105;-91
2022/11/04 05:21:35;;;;;;;49.15;21.87;;;;;;;12.80;59.88;99189.31;4411520;32;20140;-93
2022/11/04 05:24:00;;;;;;;59.97;23.50;;;;;;;12.90;59.89;99193.13;4411568;32;20113;-93
2022/11/04 05:26:26;;;;;;;59.97;23.90;;;;;;;12.79;59.88;99196.31;4421146;32;20195;-93
2022/11/04 05:28:51;;;;;;;60.12;23.83;;;;;;;12.74;59.88;99190.44;4412531;32;20119;-92
2022/11/04 05:31:16;;;;;;;54.70;21.30;;;;;;;12.64;59.87;99186.59;4422040;32;30667;-91
2022/11/04 05:33:42;;;;;;;48.50;21.30;;;;;;;12.57;59.86;99180.00;4422625;32;20171;-93
2022/11/04 05:36:08;;;;;;;54.50;22.30;;;;;;;12.39;59.86;99183.50;4410511;32;20167;-91
2022/11/04 05:38:34;;;;;;;55.28;20.92;;;;;;;12.41;59.86;99179.06;4410092;32;20410;-93
2022/11/04 05:40:59;;;;;;;43.97;19.23;;;;;;;12.44;59.87;99184.97;4412397;32;28034;-91
2022/11/04 05:43:25;;;;;;;46.60;20.08;;;;;;;12.47;59.87;99203.09;4426149;32;20166;-93
2022/11/04 05:45:50;;;;;;;47.25;20.45;;;;;;;12.40;59.86;99206.91;4410419;32;20164;-91
2022/11/04 05:48:15;;;;;;;47.65;20.67;;;;;;;12.56;59.87;99209.66;4418507;32;32425;-92
2022/11/04 05:50:41;;;;;;;58.08;22.25;;;;;;;12.45;59.86;99201.47;4437269;32;26880;-91
2022/11/04 05:53:06;;;;;;;57.97;24.77;;;;;;;12.57;59.86;99199.13;4425517;32;20161;-92
2022/11/04 05:55:31;;;;;;;50.20;21.05;;;;;;;12.63;59.87;99191.91;4412287;32;26262;-92
2022/11/04 05:57:58;;;;;;;53.20;20.35;;;;;;;12.71;59.87;99192.34;4411211;32;23122;-90
2022/11/04 06:00:24;;;;;;;47.88;20.98;;;;;;;12.59;59.87;99202.50;4417055;32;20125;-92
2022/11/04 06:02:49;;;;;;;50.25;22.75;;;;;;;12.53;59.87;99192.34;4423575;32;20109;-93
2022/11/04 06:05:14;;;;;;;48.30;19.92;;;;;;;12.66;59.88;99196.97;4424083;32;27778;-91
2022/11/04 06:07:40;;;;;;;53.53;21.17;;;;;;;12.50;59.86;99197.72;4412116;32;20231;-92
2022/11/04 06:10:06;;;;;;;55.40;22.05;;;;;;;12.51;59.87;99193.34;4427375;32;20104;-91
2022/11/04 06:12:31;;;;;;;58.78;22.85;;;;;;;12.55;59.87;99192.28;4427537;32;20101;-93
2022/11/04 06:14:56;;;;;;;51.00;21.80;;;;;;;12.51;59.87;99193.34;4424077;32;20379;-91
2022/11/04 06:17:22;;;;;;;52.38;22.02;;;;;;;12.40;59.86;99187.81;4416563;32;20132;-91
2022/11/04 06:19:48;;;;;;;61.67;22.80;;;;;;;12.24;59.85;99185.06;4439391;32;20112;-90
2022/11/04 06:22:14;;;;;;;54.70;21.23;;;;;;;12.10;59.84;99188.34;4427012;32;20344;-91
2022/11/04 06:24:39;;;;;;;52.55;21.08;;;;;;;12.20;59.84;99193.97;4424623;32;20124;-93
2022/11/04 06:27:05;;;;;;;50.83;19.30;;;;;;;12.23;59.85;99194.66;4426115;32;25769;-90
2022/11/04 06:29:31;;;;;;;53.87;20.58;;;;;;;12.25;59.85;99199.81;4427319;32;20152;-90
2022/11/04 06:31:56;;;;;;;48.00;19.67;;;;;;;12.24;59.85;99201.56;4424655;32;20501;-91
2022/11/04 06:34:22;;;;;;;60.12;21.73;;;;;;;12.35;59.85;99203.69;4418916;32;20164;-90
2022/11/04 06:36:48;;;;;;;57.20;22.37;;;;;;;12.20;59.84;99201.78;4425441;32;20141;-93
2022/11/04 06:39:13;;;;;;;53.70;20.92;;;;;;;12.16;59.85;99206.31;4412459;32;20158;-92
2022/11/04 06:41:38;;;;;;;52.00;21.15;;;;;;;12.32;59.85;99205.59;4434787;32;20137;-90
2022/11/04 06:44:04;;;;;;;52.70;21.85;;;;;;;12.19;59.84;99208.78;4427245;32;20133;-88
2022/11/04 06:46:35;;;;;;;59.50;23.45;;;;;;;12.19;59.85;99203.56;4426912;32;20088;-92
2022/11/04 06:49:00;;;;;;;55.60;21.62;;;;;;;12.35;59.85;99202.84;4412577;32;20146;-89
2022/11/04 06:51:26;;;;;;;63.08;22.60;;;;;;;12.27;59.85;99200.59;4433473;32;20211;-92
2022/11/04 06:53:51;;;;;;;53.65;21.35;;;;;;;12.17;59.85;99205.41;4424584;32;20088;-91
2022/11/04 06:56:17;;;;;;;56.33;22.23;;;;;;;12.18;59.85;99206.25;4430057;32;20139;-90
2022/11/04 06:58:42;;;;;;;53.55;20.25;;;;;;;12.21;59.85;99212.16;4449033;32;20108;-91
2022/11/04 07:01:08;;;;;;;49.50;19.17;;;;;;;12.27;59.85;99204.03;4426603;32;20587;-91
2022/11/04 07:03:33;;;;;;;54.60;22.20;;;;;;;12.23;59.85;99202.50;4415521;32;20142;-91
2022/11/04 07:06:03;;;;;;;56.58;21.45;;;;;;;12.33;59.85;99196.84;4439746;32;20135;-91
2022/11/04 07:08:29;;;;;;;64.93;24.33;;;;;;;12.31;59.86;99201.31;4427009;32;20097;-91
2022/11/04 07:10:54;;;;;;;52.03;23.48;;;;;;;12.52;59.87;99208.91;4424554;32;20148;-92
2022/11/04 07:13:20;;;;;;;52.65;22.05;;;;;;;12.50;59.86;99207.31;4425614;32;20415;-92
2022/11/04 07:15:45;;;;;;;54.92;22.52;;;;;;;12.60;59.87;99212.03;4416495;32;20146;-93
2022/11/04 07:18:10;;;;;;;58.05;24.27;;;;;;;12.39;59.86;99205.22;4427068;32;20112;-92
2022/11/04 07:20:36;;;;;;;63.87;24.00;;;;;;;12.26;59.85;99210.16;4426157;32;29279;-91
2022/11/04 07:23:02;;;;;;;57.38;22.42;;;;;;;12.38;59.86;99203.53;4414295;32;20165;-91
2022/11/04 07:25:27;;;;;;;55.25;21.83;;;;;;;12.47;59.86;99200.47;4414056;32;20116;-91
2022/11/04 07:27:52;;;;;;;54.47;21.58;;;;;;;12.39;59.86;99207.00;4426933;32;20155;-91
2022/11/04 07:30:19;;;;;;;63.87;23.10;;;;;;;12.46;59.86;99203.16;4413930;32;20171;-91
2022/11/04 07:32:45;;;;;;;53.03;22.42;;;;;;;12.45;59.86;99210.16;4424324;32;20232;-91
2022/11/04 07:35:10;;;;;;;57.47;21.83;;;;;;;12.37;59.86;99206.22;4423878;32;20456;-92
2022/11/04 07:37:36;;;;;;;54.28;21.27;;;;;;;12.28;59.86;99208.34;4414212;32;20156;-90
2022/11/04 07:40:01;;;;;;;55.08;20.70;;;;;;;12.45;59.86;99210.16;4411445;32;20100;-91
2022/11/04 07:42:27;;;;;;;55.00;20.12;;;;;;;12.39;59.86;99205.22;4416530;32;20165;-91
2022/11/04 07:44:52;;;;;;;48.05;19.52;;;;;;;12.51;59.87;99201.16;4413399;32;32673;-93
2022/11/04 07:47:17;;;;;;;47.17;20.35;;;;;;;12.62;59.88;99191.06;4413914;32;20112;-91
2022/11/04 07:49:43;;;;;;;52.97;20.23;;;;;;;12.31;59.86;99196.94;4413109;32;33809;-92
2022/11/04 07:52:09;;;;;;;53.15;21.20;;;;;;;12.41;59.86;99189.50;4413984;32;20105;-91
2022/11/04 07:54:34;;;;;;;57.22;23.35;;;;;;;12.43;59.86;99185.03;4426562;32;20177;-92
2022/11/04 07:56:59;;;;;;;52.85;22.27;;;;;;;12.45;59.87;99188.41;4412976;32;20113;-90
2022/11/04 07:59:25;;;;;;;58.15;22.90;;;;;;;12.43;59.86;99193.72;4426419;32;20128;-91
2022/11/04 08:01:50;;;;;;;53.47;23.10;;;;;;;12.28;59.85;99199.66;4411386;32;20462;-93
2022/11/04 08:04:16;;;;;;;57.60;22.83;;;;;;;12.34;59.85;99186.34;4409228;32;20159;-91
2022/11/04 08:06:42;;;;;;;57.83;21.80;;;;;;;12.26;59.85;99180.63;4424120;32;20196;-92
2022/11/04 08:09:08;;;;;;;54.55;23.40;;;;;;;12.29;59.86;99183.09;4419544;32;20939;-91
2022/11/04 08:11:33;;;;;;;57.17;22.37;;;;;;;12.32;59.85;99188.19;4436542;32;20113;-91
2022/11/04 08:13:59;;;;;;;105.68;45.65;;;;;;;12.34;59.85;99175.91;4405566;32;20139;-92
2022/11/04 08:16:25;;;;;;;64.75;26.12;;;;;;;12.46;59.86;99175.28;4439187;32;20160;-91
2022/11/04 08:18:54;;;;;;;47.20;22.20;;;;;;;12.47;59.86;99174.38;4413556;32;20167;-91
2022/11/04 08:21:19;;;;;;;55.92;22.73;;;;;;;12.50;59.86;99173.38;4414168;32;20097;-92
2022/11/04 08:23:46;;;;;;;52.05;21.60;;;;;;;12.40;59.86;99178.22;4423626;32;20170;-91
2022/11/04 08:26:15;;;;;;;52.85;22.52;;;;;;;12.52;59.87;99172.38;4408019;32;20108;-91
2022/11/04 08:28:40;;;;;;;56.22;22.80;;;;;;;12.51;59.87;99162.00;4439191;32;20101;-91
2022/11/04 08:31:10;;;;;;;54.47;21.62;;;;;;;12.41;59.86;99160.78;4426060;32;20207;-91
2022/11/04 08:33:35;;;;;;;54.53;22.83;;;;;;;12.60;59.87;99159.81;4416116;32;20097;-92
2022/11/04 08:36:07;;;;;;;53.63;23.62;;;;;;;12.63;59.87;99169.25;4423489;32;20193;-91
2022/11/04 08:38:33;;;;;;;52.95;24.20;;;;;;;12.67;59.88;99176.00;4423862;32;20521;-91
2022/11/04 08:40:58;;;;;;;54.97;24.48;;;;;;;12.60;59.87;99162.41;4413566;32;20156;-91
2022/11/04 08:43:24;;;;;;;53.47;23.12;;;;;;;12.60;59.87;99162.41;4426491;32;20138;-91
2022/11/04 08:45:50;;;;;;;53.22;22.58;;;;;;;12.59;59.87;99150.28;4423449;32;20111;-91
2022/11/04 08:48:15;;;;;;;57.33;24.83;;;;;;;12.66;59.88;99157.81;4407169;32;20112;-92
2022/11/04 08:50:41;;;;;;;53.40;24.15;;;;;;;12.72;59.87;99152.25;4415141;32;20140;-91
2022/11/04 08:53:06;;;;;;;56.85;24.35;;;;;;;12.70;59.88;99144.50;4424038;32;20116;-91
2022/11/04 08:55:32;;;;;;;58.33;25.30;;;;;;;12.66;59.88;99144.75;4425916;32;20151;-92
2022/11/04 08:57:59;;;;;;;54.78;23.92;;;;;;;12.63;59.87;99150.13;4425776;32;20450;-93
2022/11/04 09:00:24;;;;;;;57.05;24.12;;;;;;;12.67;59.88;99146.44;4423409;32;20113;-91
2022/11/04 09:02:50;;;;;;;58.83;25.95;;;;;;;12.62;59.87;99130.16;4409680;32;20387;-91
2022/11/04 09:05:16;;;;;;;58.75;25.95;;;;;;;12.88;59.88;99127.06;4410355;32;20132;-91
2022/11/04 09:07:41;;;;;;;59.92;33.55;;;;;;;12.89;59.88;99118.31;4408569;32;20498;-91
2022/11/04 09:10:08;;;;;;;54.85;24.30;;;;;;;12.72;59.88;99124.37;4425383;32;20125;-92
2022/11/04 09:12:33;;;;;;;51.88;23.55;;;;;;;12.79;59.88;99124.94;4425239;32;20510;-91
2022/11/04 09:14:58;;;;;;;55.20;24.23;;;;;;;12.80;59.88;99121.41;4425127;32;20115;-92
2022/11/04 09:17:24;;;;;;;53.63;24.33;;;;;;;12.68;59.88;99127.25;4412287;32;20155;-92
2022/11/04 09:19:49;;;;;;;59.10;23.12;;;;;;;12.77;59.88;99127.59;4412472;32;20109;-92
2022/11/04 09:22:15;;;;;;;50.42;23.02;;;;;;;12.64;59.87;99125.72;4410010;32;20141;-91
2022/11/04 09:24:40;;;;;;;56.47;26.35;;;;;;;12.75;59.88;99128.59;4425341;32;20363;-92
2022/11/04 09:27:06;;;;;;;52.08;24.05;;;;;;;12.51;59.87;99130.69;4411887;32;27602;-92
2022/11/04 09:29:32;;;;;;;57.92;25.08;;;;;;;12.62;59.87;99125.78;4422690;32;20157;-92
2022/11/04 09:31:59;;;;;;;57.42;25.73;;;;;;;12.73;59.89;99125.22;4423572;32;20113;-92
2022/11/04 09:34:24;;;;;;;52.05;23.98;;;;;;;12.67;59.88;99110.72;4425713;32;20098;-91
2022/11/04 09:36:49;;;;;;;55.72;25.80;;;;;;;12.60;59.87;99110.19;4412752;32;20151;-92
2022/11/04 09:39:15;;;;;;;60.72;28.05;;;;;;;12.70;59.87;99107.13;4410894;32;20109;-91
2022/11/04 09:41:41;;;;;;;55.30;23.67;;;;;;;12.76;59.88;99101.56;4422091;32;20125;-92
2022/11/04 09:44:18;;;;;;;52.35;23.60;;;;;;;12.84;59.88;99105.50;4453146;32;20112;-90
2022/11/04 09:46:43;;;;;;;55.72;23.67;;;;;;;12.90;59.89;99101.72;4453881;32;20062;-90
2022/11/04 09:49:09;;;;;;;57.15;24.90;;;;;;;12.87;59.88;99094.03;4430934;32;20157;-91
2022/11/04 09:51:35;;;;;;;56.03;23.92;;;;;;;12.77;59.88;99082.38;4427997;32;20098;-91
2022/11/04 09:54:03;;;;;;;57.20;23.77;;;;;;;12.72;59.88;99072.16;4411546;32;24575;-90
2022/11/04 09:56:32;;;;;;;56.35;23.15;;;;;;;12.70;59.87;99063.56;4424971;32;20114;-91
2022/11/04 09:58:57;;;;;;;53.78;24.58;;;;;;;12.63;59.87;99062.19;4425127;32;20466;-92
2022/11/04 10:01:27;;;;;;;54.50;23.65;;;;;;;12.70;59.87;99057.50;4424097;32;30876;-91
2022/11/04 10:04:24;;;;;;;50.78;23.15;;;;;;;12.55;59.87;99064.37;4422373;32;20102;-92
2022/11/04 10:06:52;;;;;;;50.10;21.75;;;;;;;12.53;59.87;99053.97;4414844;32;20169;-91
2022/11/04 10:09:37;;;;;;;48.10;22.62;;;;;;;12.49;59.86;99043.78;4440222;32;20131;-92
2022/11/04 10:12:13;;;;;;;55.38;25.08;;;;;;;12.56;59.87;99047.78;4440040;32;20466;-92
2022/11/04 10:14:50;;;;;;;48.78;24.05;;;;;;;12.51;59.87;99044.53;4413247;32;20124;-92
2022/11/04 10:17:25;;;;;;;60.45;26.42;;;;;;;12.56;59.87;99050.38;4425019;32;20061;-92
2022/11/04 10:20:23;;;;;;;47.47;24.23;;;;;;;12.78;59.88;99050.97;4411309;32;20179;-92
2022/11/04 10:22:55;;;;;;;54.55;27.17;;;;;;;12.77;59.88;99043.19;4424124;32;20189;-92
2022/11/04 10:25:21;;;;;;;63.65;25.65;;;;;;;12.80;59.88;99037.84;4426627;32;20109;-91
2022/11/04 10:27:46;;;;;;;50.65;23.38;;;;;;;12.91;59.89;99035.50;4414518;32;20544;-92
2022/11/04 10:30:22;;;;;;;54.47;25.50;;;;;;;12.87;59.88;99033.97;4427222;32;20172;-92
2022/11/04 10:33:22;;;;;;;55.80;24.12;;;;;;;12.88;59.90;99036.50;4411898;32;20157;-92
2022/11/04 10:35:51;;;;;;;48.87;23.77;;;;;;;12.81;59.88;99040.37;4440224;32;20121;-92
2022/11/04 10:38:24;;;;;;;50.47;23.75;;;;;;;12.72;59.87;99034.75;4415098;32;20171;-92
2022/11/04 10:40:51;;;;;;;55.22;25.15;;;;;;;12.90;59.89;99024.19;4427353;32;20113;-92
2022/11/04 10:43:36;;;;;;;51.80;23.92;;;;;;;12.89;59.88;99016.44;4411920;32;20123;-91
2022/11/04 10:46:26;;;;;;;56.22;24.95;;;;;;;12.86;59.88;99011.38;4419821;32;20522;-91
2022/11/04 10:49:20;;;;;;;51.65;23.95;;;;;;;12.95;59.89;99010.03;4439989;32;20113;-92
2022/11/04 10:51:46;;;;;;;53.97;24.58;;;;;;;12.87;59.89;99013.06;4428896;32;20105;-93
2022/11/04 10:54:11;;;;;;;52.35;24.33;;;;;;;12.85;59.88;99014.94;4414459;32;20124;-92
2022/11/04 10:56:46;;;;;;;53.63;22.65;;;;;;;12.78;59.88;99008.34;4412132;32;20116;-91
2022/11/04 10:59:20;;;;;;;53.38;24.10;;;;;;;12.82;59.89;99002.03;4410283;32;20105;-92
2022/11/04 11:01:59;;;;;;;51.75;23.67;;;;;;;12.88;59.89;98993.88;4440082;32;20113;-92
2022/11/04 11:04:35;;;;;;;54.55;26.30;;;;;;;12.87;59.88;99000.00;4414322;32;20096;-92
2022/11/04 11:07:04;;;;;;;57.55;25.58;;;;;;;12.73;59.88;98994.66;4429738;32;20093;-91
2022/11/04 11:09:34;;;;;;;56.70;25.35;;;;;;;12.82;59.89;99004.66;4414646;32;20105;-92
2022/11/04 11:12:05;;;;;;;52.05;24.40;;;;;;;12.90;59.89;99002.47;4411808;32;20117;-92
2022/11/04 11:14:35;;;;;;;49.78;23.30;;;;;;;12.99;59.90;98998.50;4420448;32;20115;-91
2022/11/04 11:17:13;;;;;;;;;;;;;;;12.98;59.90;99009.87;4402233;32;20101;-92
2022/11/04 11:19:44;;;;;;;44.30;21.90;;;;;;;13.05;59.90;99006.03;4435534;32;20046;-93
2022/11/04 11:22:37;;;;;;;46.03;23.00;;;;;;;13.14;59.91;99001.13;4424480;32;20132;-91
2022/11/04 11:25:12;;;;;;;50.33;22.08;;;;;;;13.24;59.90;98995.44;4436953;32;20112;-92
2022/11/04 11:27:38;;;;;;;47.88;23.30;;;;;;;13.16;59.90;98988.81;4427010;32;20102;-91
2022/11/04 11:30:03;;;;;;;46.30;21.92;;;;;;;13.15;59.90;98996.75;4414174;32;20109;-92
2022/11/04 11:32:34;;;;;;;50.28;23.48;;;;;;;13.31;59.91;98981.13;4427118;32;20136;-92
2022/11/04 11:35:01;;;;;;;52.85;24.17;;;;;;;13.56;59.92;98981.44;4412126;32;20844;-92
2022/11/04 11:37:26;;;;;;;50.90;23.33;;;;;;;13.66;59.93;98973.91;4427001;32;20675;-92
2022/11/04 11:39:51;;;;;;;55.53;26.17;;;;;;;13.67;59.93;98976.44;4427025;32;20101;-92
2022/11/04 11:42:19;;;;;;;48.45;23.90;;;;;;;13.72;59.94;98977.03;4414030;32;20156;-92
2022/11/04 11:44:49;;;;;;;52.42;26.10;;;;;;;13.58;59.93;98974.34;4440030;32;20529;-92
2022/11/04 11:47:30;;;;;;;46.97;23.45;;;;;;;13.64;59.94;98968.75;4414070;32;20168;-91
2022/11/04 11:50:17;;;;;;;51.17;24.48;;;;;;;13.50;59.92;98961.72;4439615;32;20176;-91
2022/11/04 11:52:43;;;;;;;47.92;24.63;;;;;;;13.55;59.92;98958.00;4439686;32;20149;-92
2022/11/04 11:55:18;;;;;;;54.80;25.90;;;;;;;13.51;59.92;98960.78;4426923;32;20119;-92
2022/11/04 11:58:13;;;;;;;57.15;26.62;;;;;;;13.54;59.92;98945.84;4412892;32;20109;-92